createdAt,value
2024-03-12T00:01:01.884Z,17.13
2024-03-12T00:03:31.615Z,17.00
2024-03-12T00:06:01.068Z,18.00
2024-03-12T00:08:31.351Z,17.47
2024-03-12T00:10:58.669Z,17.03
2024-03-12T00:13:27.910Z,17.53
2024-03-12T00:15:56.836Z,17.07
2024-03-12T00:18:27.093Z,16.50
2024-03-12T00:20:54.737Z,15.73
2024-03-12T00:23:23.642Z,16.97
2024-03-12T00:25:51.299Z,16.63
2024-03-12T00:28:18.637Z,16.87
2024-03-12T00:30:45.923Z,16.27
2024-03-12T00:33:13.139Z,16.30
2024-03-12T00:35:44.709Z,15.13
2024-03-12T00:38:12.311Z,17.00
2024-03-12T00:40:40.417Z,16.33
2024-03-12T00:43:08.883Z,18.27
2024-03-12T00:45:40.215Z,14.97
2024-03-12T00:48:19.686Z,16.07
2024-03-12T00:50:47.490Z,15.53
2024-03-12T00:53:15.510Z,15.77
2024-03-12T00:55:48.488Z,17.10
2024-03-12T00:58:16.990Z,17.63
2024-03-12T01:00:46.846Z,16.70
2024-03-12T01:03:14.250Z,16.77
2024-03-12T01:05:41.704Z,16.90
2024-03-12T01:08:09.517Z,17.17
2024-03-12T01:10:37.380Z,17.03
2024-03-12T01:13:11.039Z,16.80
2024-03-12T01:15:39.621Z,16.93
2024-03-12T01:18:06.931Z,16.30
2024-03-12T01:20:36.544Z,19.37
2024-03-12T01:23:06.306Z,17.23
2024-03-12T01:25:36.580Z,18.60
2024-03-12T01:28:06.801Z,16.17
2024-03-12T01:30:35.104Z,16.30
2024-03-12T01:33:03.773Z,17.40
2024-03-12T01:35:31.680Z,16.43
2024-03-12T01:37:59.494Z,16.27
2024-03-12T01:40:28.839Z,17.10
2024-03-12T01:43:02.776Z,16.50
2024-03-12T01:45:30.536Z,16.90
2024-03-12T01:47:59.733Z,16.77
2024-03-12T01:50:28.389Z,16.63
2024-03-12T01:52:58.710Z,17.03
2024-03-12T01:55:25.918Z,18.03
2024-03-12T01:57:53.465Z,17.47
2024-03-12T02:00:21.131Z,17.67
2024-03-12T02:02:53.792Z,17.80
2024-03-12T02:05:22.634Z,17.20
2024-03-12T02:07:51.810Z,17.50
2024-03-12T02:10:22.603Z,17.30
2024-03-12T02:12:49.731Z,18.30
2024-03-12T02:15:24.228Z,17.40
2024-03-12T02:17:53.476Z,16.43
2024-03-12T02:20:22.971Z,18.00
2024-03-12T02:22:57.044Z,17.73
2024-03-12T02:25:24.685Z,18.43
2024-03-12T02:27:52.844Z,17.50
2024-03-12T02:30:20.629Z,17.23
2024-03-12T02:32:48.480Z,16.90
2024-03-12T02:35:16.749Z,16.80
2024-03-12T02:37:44.025Z,17.63
2024-03-12T02:40:14.765Z,18.50
2024-03-12T02:42:43.538Z,18.03
2024-03-12T02:45:16.695Z,16.70
2024-03-12T02:47:45.380Z,16.90
2024-03-12T02:50:13.018Z,17.80
2024-03-12T02:52:42.973Z,16.90
2024-03-12T02:55:10.551Z,16.97
2024-03-12T02:57:38.416Z,18.13
2024-03-12T03:00:12.689Z,19.03
2024-03-12T03:02:39.847Z,16.77
2024-03-12T03:05:07.883Z,17.50
2024-03-12T03:07:36.582Z,18.60
2024-03-12T03:10:04.143Z,17.40
2024-03-12T03:12:31.479Z,16.53
2024-03-12T03:14:58.456Z,17.77
2024-03-12T03:17:26.167Z,18.40
2024-03-12T03:19:53.739Z,18.63
2024-03-12T03:22:20.737Z,18.10
2024-03-12T03:24:48.015Z,17.30
2024-03-12T03:27:15.222Z,19.33
2024-03-12T03:29:43.965Z,17.50
2024-03-12T03:32:11.291Z,16.97
2024-03-12T03:34:38.846Z,17.80
2024-03-12T03:37:05.878Z,17.93
2024-03-12T03:39:37.040Z,18.90
2024-03-12T03:42:04.385Z,20.80
2024-03-12T03:44:31.251Z,18.63
2024-03-12T03:46:58.043Z,17.23
2024-03-12T03:49:25.081Z,17.63
2024-03-12T03:51:52.993Z,18.93
2024-03-12T03:54:20.239Z,18.97
2024-03-12T03:56:47.088Z,18.83
2024-03-12T03:59:17.844Z,18.17
2024-03-12T04:01:45.060Z,18.80
2024-03-12T04:04:14.230Z,19.33
2024-03-12T04:06:45.047Z,19.20
2024-03-12T04:09:12.836Z,19.40
2024-03-12T04:11:40.265Z,17.67
2024-03-12T04:14:08.985Z,20.00
2024-03-12T04:16:35.991Z,19.70
2024-03-12T04:19:03.086Z,19.60
2024-03-12T04:21:30.633Z,20.37
2024-03-12T04:23:57.848Z,20.27
2024-03-12T04:26:24.698Z,20.17
2024-03-12T04:28:51.547Z,19.87
2024-03-12T04:31:22.116Z,19.80
2024-03-12T04:33:54.193Z,19.20
2024-03-12T04:36:25.815Z,19.77
2024-03-12T04:38:52.851Z,19.93
2024-03-12T04:41:22.587Z,20.47
2024-03-12T04:43:49.893Z,21.00
2024-03-12T04:46:17.438Z,21.27
2024-03-12T04:48:46.419Z,22.47
2024-03-12T04:51:13.712Z,20.97
2024-03-12T04:53:40.999Z,21.73
2024-03-12T04:56:09.297Z,22.10
2024-03-12T04:58:37.210Z,21.10
2024-03-12T05:01:06.928Z,21.40
2024-03-12T05:03:34.616Z,22.40
2024-03-12T05:06:01.826Z,21.10
2024-03-12T05:08:29.107Z,21.77
2024-03-12T05:10:57.280Z,21.57
2024-03-12T05:13:24.766Z,22.57
2024-03-12T05:15:51.796Z,21.97
2024-03-12T05:18:18.725Z,21.93
2024-03-12T05:20:46.045Z,32.33
2024-03-12T05:23:13.434Z,35.63
2024-03-12T05:25:41.474Z,29.87
2024-03-12T05:28:10.276Z,29.57
2024-03-12T05:30:38.779Z,26.77
2024-03-12T05:33:10.872Z,24.90
2024-03-12T05:35:40.270Z,29.30
2024-03-12T05:38:13.334Z,27.83
2024-03-12T05:40:58.990Z,25.00
2024-03-12T05:43:44.440Z,25.27
2024-03-12T05:46:30.873Z,25.67
2024-03-12T05:48:58.387Z,24.53
2024-03-12T05:51:26.370Z,25.27
2024-03-12T05:53:53.715Z,24.90
2024-03-12T05:56:21.367Z,23.97
2024-03-12T05:58:48.433Z,25.23
2024-03-12T06:01:16.026Z,24.03
2024-03-12T06:03:43.435Z,23.80
2024-03-12T06:06:10.884Z,23.43
2024-03-12T06:08:38.143Z,26.13
2024-03-12T06:11:05.387Z,23.00
2024-03-12T06:13:32.751Z,24.03
2024-03-12T06:15:59.694Z,25.70
2024-03-12T06:18:29.522Z,23.87
2024-03-12T06:20:57.058Z,24.83
2024-03-12T06:23:24.780Z,23.60
2024-03-12T06:25:52.030Z,23.93
2024-03-12T06:28:23.201Z,23.17
2024-03-12T06:30:50.738Z,22.77
2024-03-12T06:33:18.745Z,23.20
2024-03-12T06:35:49.184Z,24.53
2024-03-12T06:38:17.020Z,23.17
2024-03-12T06:40:44.837Z,25.83
2024-03-12T06:43:14.658Z,24.60
2024-03-12T06:45:42.407Z,24.80
2024-03-12T06:48:09.583Z,23.63
2024-03-12T06:50:36.478Z,25.17
2024-03-12T06:53:03.493Z,24.33
2024-03-12T06:55:30.663Z,24.20
2024-03-12T06:58:03.720Z,24.63
2024-03-12T07:00:38.497Z,24.20
2024-03-12T07:03:06.377Z,23.93
2024-03-12T07:05:44.610Z,23.97
2024-03-12T07:08:11.776Z,23.07
2024-03-12T07:10:41.919Z,24.33
2024-03-12T07:13:09.632Z,24.80
2024-03-12T07:15:40.077Z,22.97
2024-03-12T07:18:08.393Z,23.17
2024-03-12T07:20:35.960Z,24.43
2024-03-12T07:23:03.986Z,24.43
2024-03-12T07:25:34.425Z,25.63
2024-03-12T07:28:08.950Z,24.67
2024-03-12T07:30:36.947Z,27.43
2024-03-12T07:33:04.942Z,25.70
2024-03-12T07:35:35.714Z,24.17
2024-03-12T07:38:04.997Z,26.30
2024-03-12T07:40:32.874Z,25.60
2024-03-12T07:43:00.508Z,25.03
2024-03-12T07:45:28.777Z,25.90
2024-03-12T07:47:57.440Z,26.10
2024-03-12T07:50:29.785Z,30.07
2024-03-12T07:52:57.594Z,34.73
2024-03-12T07:55:25.374Z,28.87
2024-03-12T07:57:52.665Z,24.57
2024-03-12T08:00:20.618Z,23.63
2024-03-12T08:02:48.151Z,24.10
2024-03-12T08:05:15.468Z,24.27
2024-03-12T08:07:45.641Z,25.37
2024-03-12T08:10:13.750Z,25.33
2024-03-12T08:12:41.580Z,22.63
2024-03-12T08:15:10.383Z,23.70
2024-03-12T08:17:39.215Z,26.53
2024-03-12T08:20:07.309Z,25.93
2024-03-12T08:22:34.157Z,23.73
2024-03-12T08:25:01.078Z,25.70
2024-03-12T08:27:28.117Z,22.70
2024-03-12T08:29:58.307Z,24.43
2024-03-12T08:32:26.411Z,24.40
2024-03-12T08:34:53.531Z,25.87
2024-03-12T08:37:20.442Z,24.13
2024-03-12T08:39:48.046Z,29.33
2024-03-12T08:42:14.979Z,24.10
2024-03-12T08:44:41.917Z,23.70
2024-03-12T08:47:09.918Z,26.53
2024-03-12T08:49:36.764Z,26.57
2024-03-12T08:52:04.672Z,26.03
2024-03-12T08:54:34.891Z,20.67
2024-03-12T08:57:05.230Z,22.90
2024-03-12T08:59:32.887Z,23.63
2024-03-12T09:02:01.128Z,22.33
2024-03-12T09:04:32.591Z,23.00
2024-03-12T09:07:00.290Z,22.80
2024-03-12T09:09:27.965Z,23.33
2024-03-12T09:11:57.214Z,20.63
2024-03-12T09:14:24.778Z,21.47
2024-03-12T09:16:52.818Z,22.17
2024-03-12T09:19:19.677Z,23.03
2024-03-12T09:21:46.955Z,24.27
2024-03-12T09:24:16.404Z,22.00
2024-03-12T09:26:45.299Z,23.17
2024-03-12T09:29:14.320Z,21.80
2024-03-12T09:31:44.443Z,20.63
2024-03-12T09:34:12.246Z,22.27
2024-03-12T09:36:39.538Z,21.10
2024-03-12T09:39:12.301Z,20.83
2024-03-12T09:41:44.118Z,21.50
2024-03-12T09:44:12.414Z,21.23
2024-03-12T09:46:42.336Z,21.77
2024-03-12T09:49:14.368Z,20.80
2024-03-12T09:51:42.710Z,21.03
2024-03-12T09:54:10.415Z,21.47
2024-03-12T09:56:38.588Z,20.53
2024-03-12T09:59:09.149Z,19.43
2024-03-12T10:01:39.512Z,21.87
2024-03-12T10:04:07.771Z,21.00
2024-03-12T10:06:34.980Z,19.63
2024-03-12T10:09:02.249Z,21.27
2024-03-12T10:11:31.402Z,21.27
2024-03-12T10:14:00.021Z,19.87
2024-03-12T10:16:29.868Z,19.30
2024-03-12T10:19:11.336Z,22.30
2024-03-12T10:21:39.038Z,20.53
2024-03-12T10:24:23.989Z,19.10
2024-03-12T10:26:51.200Z,21.43
2024-03-12T10:29:21.797Z,19.10
2024-03-12T10:31:49.325Z,20.57
2024-03-12T10:34:21.314Z,20.40
2024-03-12T10:36:50.904Z,20.43
2024-03-12T10:39:29.553Z,20.50
2024-03-12T10:41:59.032Z,20.70
2024-03-12T10:44:29.173Z,21.90
2024-03-12T10:46:59.645Z,20.37
2024-03-12T10:49:27.918Z,20.30
2024-03-12T10:51:56.473Z,21.37
2024-03-12T10:54:24.089Z,20.27
2024-03-12T10:56:51.478Z,20.90
2024-03-12T10:59:20.726Z,20.23
2024-03-12T11:01:49.421Z,20.00
2024-03-12T11:04:17.131Z,20.13
2024-03-12T11:06:46.663Z,19.53
2024-03-12T11:09:22.485Z,20.30
2024-03-12T11:11:53.611Z,18.93
2024-03-12T11:14:21.844Z,20.63
2024-03-12T11:16:49.140Z,18.70
2024-03-12T11:19:24.486Z,20.57
2024-03-12T11:22:06.992Z,19.53
2024-03-12T11:24:50.780Z,19.47
2024-03-12T11:27:26.916Z,19.17
2024-03-12T11:30:06.200Z,20.40
2024-03-12T11:32:41.620Z,19.57
2024-03-12T11:35:29.535Z,19.33
2024-03-12T11:37:59.524Z,19.83
2024-03-12T11:40:48.112Z,18.33
2024-03-12T11:43:39.234Z,20.70
2024-03-12T11:46:10.990Z,18.57
2024-03-12T11:48:42.651Z,19.47
2024-03-12T11:51:13.469Z,19.07
2024-03-12T11:53:42.720Z,18.90
2024-03-12T11:56:12.306Z,17.93
2024-03-12T11:58:48.420Z,18.40
2024-03-12T12:01:24.621Z,17.33
2024-03-12T12:04:00.620Z,17.50
2024-03-12T12:06:28.703Z,19.20
2024-03-12T12:09:00.630Z,18.37
2024-03-12T12:11:29.804Z,18.20
2024-03-12T12:14:00.577Z,18.37
2024-03-12T12:16:29.689Z,19.30
2024-03-12T12:19:06.644Z,18.80
2024-03-12T12:21:34.990Z,19.37
2024-03-12T12:24:04.473Z,18.27
2024-03-12T12:26:34.513Z,18.90
2024-03-12T12:29:04.767Z,17.27
2024-03-12T12:31:36.951Z,19.27
2024-03-12T12:34:06.527Z,18.83
2024-03-12T12:36:37.183Z,20.50
2024-03-12T12:39:05.477Z,18.30
2024-03-12T12:41:36.198Z,17.70
2024-03-12T12:44:22.632Z,18.00
2024-03-12T12:46:50.367Z,20.03
2024-03-12T12:49:18.770Z,18.57
2024-03-12T12:51:47.841Z,20.40
2024-03-12T12:54:16.860Z,19.97
2024-03-12T12:56:45.727Z,20.03
2024-03-12T12:59:17.957Z,20.97
2024-03-12T13:01:48.932Z,20.33
2024-03-12T13:04:21.425Z,20.30
2024-03-12T13:06:48.690Z,20.97
2024-03-12T13:09:33.305Z,18.50
2024-03-12T13:12:01.763Z,19.20
2024-03-12T13:14:29.029Z,19.43
2024-03-12T13:16:56.487Z,18.70
2024-03-12T13:19:24.393Z,19.73
2024-03-12T13:21:52.073Z,19.87
2024-03-12T13:24:22.213Z,19.43
2024-03-12T13:26:49.778Z,18.73
2024-03-12T13:29:17.070Z,21.57
2024-03-12T13:31:44.481Z,21.27
2024-03-12T13:34:11.347Z,20.17
2024-03-12T13:36:38.245Z,20.47
2024-03-12T13:39:07.090Z,18.30
2024-03-12T13:41:33.954Z,19.43
2024-03-12T13:44:00.735Z,19.67
2024-03-12T13:46:27.646Z,20.03
2024-03-12T13:49:14.813Z,18.03
2024-03-12T13:51:44.029Z,18.10
2024-03-12T13:54:11.761Z,19.70
2024-03-12T13:56:39.205Z,19.77
2024-03-12T13:59:06.298Z,18.07
2024-03-12T14:01:33.815Z,18.13
2024-03-12T14:04:01.559Z,17.70
2024-03-12T14:06:31.246Z,18.33
2024-03-12T14:08:58.178Z,20.20
2024-03-12T14:11:28.560Z,19.60
2024-03-12T14:13:57.152Z,20.60
2024-03-12T14:16:25.351Z,18.93
2024-03-12T14:18:53.804Z,19.30
2024-03-12T14:21:22.162Z,18.77
2024-03-12T14:23:49.717Z,19.73
2024-03-12T14:26:20.177Z,23.83
2024-03-12T14:28:47.674Z,20.40
2024-03-12T14:31:15.615Z,20.40
2024-03-12T14:33:43.469Z,20.67
2024-03-12T14:36:11.336Z,19.83
2024-03-12T14:38:39.086Z,19.67
2024-03-12T14:41:07.562Z,19.53
2024-03-12T14:43:35.570Z,18.83
2024-03-12T14:46:06.034Z,17.50
2024-03-12T14:48:35.127Z,17.60
2024-03-12T14:51:02.523Z,19.07
2024-03-12T14:53:29.858Z,18.13
2024-03-12T14:56:00.197Z,17.60
2024-03-12T14:58:28.757Z,17.80
2024-03-12T15:00:56.143Z,19.60
2024-03-12T15:03:23.399Z,18.57
2024-03-12T15:05:54.928Z,18.43
2024-03-12T15:08:22.689Z,18.50
2024-03-12T15:10:49.987Z,16.60
2024-03-12T15:13:17.400Z,17.57
2024-03-12T15:15:45.562Z,17.67
2024-03-12T15:18:14.329Z,17.53
2024-03-12T15:20:43.214Z,17.83
2024-03-12T15:23:10.677Z,17.70
2024-03-12T15:25:37.746Z,16.83
2024-03-12T15:28:05.419Z,17.07
2024-03-12T15:30:34.585Z,17.20
2024-03-12T15:33:02.018Z,19.63
2024-03-12T15:35:30.316Z,19.13
2024-03-12T15:37:59.809Z,17.97
2024-03-12T15:40:27.513Z,17.80
2024-03-12T15:42:55.563Z,18.73
2024-03-12T15:45:23.610Z,19.10
2024-03-12T15:47:50.958Z,18.23
2024-03-12T15:50:18.333Z,19.47
2024-03-12T15:52:45.281Z,18.03
2024-03-12T15:55:13.602Z,17.77
2024-03-12T15:57:41.923Z,18.30
2024-03-12T16:00:10.094Z,18.40
2024-03-12T16:02:37.500Z,18.53
2024-03-12T16:05:07.380Z,18.57
2024-03-12T16:07:37.949Z,18.67
2024-03-12T16:10:05.704Z,19.87
2024-03-12T16:12:33.255Z,21.47
2024-03-12T16:15:00.668Z,21.47
2024-03-12T16:17:31.632Z,23.13
2024-03-12T16:19:59.588Z,23.50
2024-03-12T16:22:26.828Z,21.73
2024-03-12T16:24:55.270Z,25.10
2024-03-12T16:27:22.054Z,23.77
2024-03-12T16:29:48.975Z,24.57
2024-03-12T16:32:17.053Z,23.60
2024-03-12T16:34:45.225Z,23.03
2024-03-12T16:37:14.675Z,23.93
2024-03-12T16:39:42.045Z,23.63
2024-03-12T16:42:10.618Z,24.63
2024-03-12T16:44:37.884Z,22.97
2024-03-12T16:47:08.350Z,23.57
2024-03-12T16:49:38.767Z,23.33
2024-03-12T16:52:11.850Z,22.47
2024-03-12T16:54:39.538Z,22.00
2024-03-12T16:57:06.796Z,23.90
2024-03-12T16:59:34.726Z,22.23
2024-03-12T17:02:05.052Z,24.23
2024-03-12T17:04:32.940Z,23.33
2024-03-12T17:07:09.107Z,22.40
2024-03-12T17:12:06.447Z,22.80
2024-03-12T17:14:36.227Z,22.30
2024-03-12T17:17:07.242Z,21.57
2024-03-12T17:19:36.497Z,23.10
2024-03-12T17:22:06.764Z,23.40
2024-03-12T17:24:35.551Z,24.03
2024-03-12T17:27:06.127Z,28.17
2024-03-12T17:29:33.264Z,31.83
2024-03-12T17:32:00.682Z,27.53
2024-03-12T17:34:29.045Z,25.57
2024-03-12T17:36:58.110Z,27.80
2024-03-12T17:39:25.461Z,25.43
2024-03-12T17:41:53.059Z,26.40
2024-03-12T17:44:20.397Z,28.47
2024-03-12T17:46:48.477Z,27.40
2024-03-12T17:49:20.794Z,27.97
2024-03-12T17:51:48.187Z,26.50
2024-03-12T17:54:18.344Z,28.57
2024-03-12T17:56:49.435Z,29.50
2024-03-12T17:59:20.277Z,28.43
2024-03-12T18:01:48.243Z,29.80
2024-03-12T18:04:15.906Z,31.17
2024-03-12T18:06:44.030Z,28.23
2024-03-12T18:09:19.920Z,24.97
2024-03-12T18:11:47.666Z,25.60
2024-03-12T18:14:15.839Z,28.17
2024-03-12T18:16:42.617Z,28.07
2024-03-12T18:19:09.903Z,30.10
2024-03-12T18:21:37.787Z,27.63
2024-03-12T18:24:06.762Z,29.70
2024-03-12T18:26:34.349Z,29.90
2024-03-12T18:29:04.168Z,29.67
2024-03-12T18:31:31.709Z,28.93
2024-03-12T18:33:59.124Z,26.57
2024-03-12T18:36:25.957Z,27.13
2024-03-12T18:38:52.778Z,25.80
2024-03-12T18:41:20.069Z,27.80
2024-03-12T18:43:46.830Z,29.83
2024-03-12T18:46:13.812Z,29.53
2024-03-12T18:48:42.317Z,31.90
2024-03-12T18:51:10.730Z,32.40
2024-03-12T18:53:39.015Z,37.20
2024-03-12T18:56:06.200Z,35.53
2024-03-12T18:58:33.428Z,39.00
2024-03-12T19:01:02.710Z,38.00
2024-03-12T19:03:51.149Z,31.20
2024-03-12T19:06:22.075Z,27.47
2024-03-12T19:08:53.915Z,28.40
2024-03-12T19:11:21.290Z,28.60
2024-03-12T19:13:48.683Z,30.97
2024-03-12T19:16:19.897Z,31.73
2024-03-12T19:18:51.058Z,27.60
2024-03-12T19:21:20.735Z,29.67
2024-03-12T19:23:49.618Z,29.43
2024-03-12T19:26:19.034Z,29.97
2024-03-12T19:28:46.928Z,32.10
2024-03-12T19:31:15.773Z,30.93
2024-03-12T19:33:45.070Z,30.33
2024-03-12T19:36:15.704Z,32.00
2024-03-12T19:38:42.734Z,31.03
2024-03-12T19:41:13.463Z,28.13
2024-03-12T19:43:40.690Z,31.90
2024-03-12T19:46:08.964Z,33.13
2024-03-12T19:48:37.082Z,31.63
2024-03-12T19:51:05.271Z,32.20
2024-03-12T19:53:34.288Z,33.30
2024-03-12T19:56:01.735Z,41.03
2024-03-12T19:58:29.555Z,37.37
2024-03-12T20:00:56.864Z,29.73
2024-03-12T20:03:26.598Z,29.23
2024-03-12T20:05:56.280Z,29.83
2024-03-12T20:08:24.140Z,34.37
2024-03-12T20:10:51.060Z,33.57
2024-03-12T20:13:18.008Z,33.07
2024-03-12T20:15:46.515Z,32.10
2024-03-12T20:18:15.063Z,30.07
2024-03-12T20:20:44.608Z,31.80
2024-03-12T20:23:12.389Z,33.50
2024-03-12T20:25:41.019Z,34.60
2024-03-12T20:28:10.861Z,33.23
2024-03-12T20:30:40.583Z,27.07
2024-03-12T20:33:09.946Z,30.63
2024-03-12T20:35:39.992Z,29.13
2024-03-12T20:38:09.809Z,30.00
2024-03-12T20:40:37.359Z,28.67
2024-03-12T20:43:07.050Z,29.77
2024-03-12T20:45:35.735Z,31.97
2024-03-12T20:48:04.186Z,30.07
2024-03-12T20:50:31.047Z,29.50
2024-03-12T20:52:58.713Z,29.93
2024-03-12T20:55:25.784Z,29.70
2024-03-12T20:57:53.252Z,29.40
2024-03-12T21:00:39.386Z,30.10
2024-03-12T21:03:10.380Z,29.37
2024-03-12T21:05:43.098Z,30.80
2024-03-12T21:08:12.414Z,29.73
2024-03-12T21:10:44.369Z,30.10
2024-03-12T21:13:12.466Z,30.17
2024-03-12T21:15:39.292Z,28.90
2024-03-12T21:18:07.255Z,29.40
2024-03-12T21:20:35.335Z,30.83
2024-03-12T21:23:09.198Z,29.50
2024-03-12T21:25:36.734Z,30.90
2024-03-12T21:28:04.399Z,30.90
2024-03-12T21:30:32.897Z,28.67
2024-03-12T21:33:00.372Z,29.40
2024-03-12T21:35:27.647Z,30.27
2024-03-12T21:37:54.616Z,30.03
2024-03-12T21:40:24.043Z,31.60
2024-03-12T21:42:51.630Z,32.07
2024-03-12T21:45:20.351Z,29.40
2024-03-12T21:47:49.006Z,30.37
2024-03-12T21:50:17.083Z,29.20
2024-03-12T21:52:44.530Z,32.70
2024-03-12T21:55:12.327Z,32.63
2024-03-12T21:57:40.950Z,31.50
2024-03-12T22:00:12.548Z,32.70
2024-03-12T22:02:39.861Z,32.13
2024-03-12T22:05:07.299Z,30.67
2024-03-12T22:07:38.155Z,28.57
2024-03-12T22:10:06.572Z,27.90
2024-03-12T22:12:33.399Z,26.73
2024-03-12T22:15:00.256Z,29.03
2024-03-12T22:17:27.490Z,27.93
2024-03-12T22:19:55.606Z,27.40
2024-03-12T22:22:23.596Z,28.60
2024-03-12T22:24:50.658Z,28.07
2024-03-12T22:27:18.978Z,27.20
2024-03-12T22:29:47.139Z,25.57
2024-03-12T22:32:21.898Z,24.40
2024-03-12T22:34:49.328Z,23.70
2024-03-12T22:37:16.505Z,21.80
2024-03-12T22:39:44.043Z,21.77
2024-03-12T22:42:11.496Z,23.57
2024-03-12T22:44:38.536Z,22.73
2024-03-12T22:47:09.070Z,22.73
2024-03-12T22:49:37.186Z,23.10
2024-03-12T22:52:06.465Z,22.10
2024-03-12T22:54:34.217Z,25.03
2024-03-12T22:57:01.593Z,21.50
2024-03-12T22:59:28.702Z,23.97
2024-03-12T23:01:57.466Z,21.67
2024-03-12T23:04:26.574Z,23.37
2024-03-12T23:06:55.048Z,22.87
2024-03-12T23:09:22.637Z,24.70
2024-03-12T23:11:50.764Z,23.23
2024-03-12T23:14:20.040Z,21.37
2024-03-12T23:16:47.215Z,23.63
2024-03-12T23:19:14.384Z,21.40
2024-03-12T23:21:41.280Z,21.77
2024-03-12T23:24:09.027Z,22.80
2024-03-12T23:26:35.994Z,23.23
2024-03-12T23:29:03.256Z,22.47
2024-03-12T23:31:31.355Z,23.20
2024-03-12T23:33:59.217Z,22.37
2024-03-12T23:36:28.921Z,22.30
2024-03-12T23:38:57.439Z,21.70
2024-03-12T23:41:24.925Z,20.87
2024-03-12T23:43:53.952Z,21.17
2024-03-12T23:46:22.748Z,21.70
2024-03-12T23:48:50.203Z,21.70
2024-03-12T23:51:17.492Z,21.50
2024-03-12T23:53:44.660Z,22.67
2024-03-12T23:56:12.103Z,22.90
2024-03-12T23:58:39.850Z,21.97
